Arvada, CO

11:19 AM MDT on March 27, 2015 (GMT -0600)
Glen Ellen | | Change Station
CLOSE
Current Station
Personal Weather Station
Location: Arvada, CO
Elevation: 5377 ft
Nearby Weather Stations

Elev 5377 ft 39.80 °N, 105.09 °W | Updated 9 minutes ago

Partly Cloudy
Partly Cloudy
59.4 °F
Feels Like 59.4 °F
N
0.0
Wind Variable Wind from North
Gusts 0.0 mph

Today
High -- | Low -- °F
--% Chance of Precip.
Yesterday
High -- | Low -- °F
Precip. -- in
6:52 AM 7:19 PM
First Quarter, 54% visible
Pressure 30.18 in
Visibility 70.0 miles
Clouds Few 8000 ft
Few 12000 ft
Mostly Cloudy 22000 ft
Dew Point 35 °F
Humidity 40%
Rainfall 0.00 in
Snow Depth Not available.
UV 3 out of 12
Pollen 10.60 out of 12
Air Quality Not available.
Flu Activity Not available.
METAR KBJC 271646Z 27008KT 70SM FEW080 FEW120 BKN220 17/M02 A3018

More Conditions Fewer Conditions

Pressure 30.18 in
Visibility 70.0 miles
Clouds Few 8000 ft
Few 12000 ft
Mostly Cloudy 22000 ft
Dew Point 35 °F
Humidity 40%
Rainfall 0.00 in
Snow Depth Not available.
UV 3 out of 12
Pollen 10.60 out of 12
Air Quality Not available.
Flu Activity Not available.
METAR KBJC 271646Z 27008KT 70SM FEW080 FEW120 BKN220 17/M02 A3018

More Conditions Fewer Conditions

10-Day Weather Forecast

Almanac

Astronomy

Mar. 27, 2015 Rise Set
Actual Time
Civil Twilight
Nautical Twilight
Astronomical Twilight
Moon
Length of Visible Light
Length of Day
Tomorrow will be .
, % of the Moon is Illuminated

Today's Extremes

State Highs State Lows

Community

WunderPhotos

Upload Photos

1,808,768 photos uploaded!

WunderBlogs® & News

Nearby

Air Quality

  Air Quality AQ Index Pollutant
Not available.

Snow Depth

Station Depth Elevation

Earthquake Activity

City Distance Mag. Time & Date
Minimum magnitude displayed is 2.5.

Coastal Water Temperatures

Place Temperature

Stations

Nearby Weather Stations

Station Location Temp. Windchill Dew Point Humidity Wind Precip. Elev Updated Type